Bookmark and Share
Track history (hours):
 

Alpine Light

Last reported at 2014-Apr-18 17:31 UTC. Time now 2014-Apr-18 18:25 UTC.
Position N 35°26' E 139°45'.

Length 183 m; draft 8.5 m.

Type: Tanker. MMSI: 538003962.

NotesDate/timePositionNaut miles runAvg speedWind from/ knotsBaromVisibWave heightAir tempDewpointWater temp
2014-Apr-18 17:31N 35°26' E 139°45'0 0.0
2014-Apr-18 16:31N 35°26' E 139°45'0 0.0
2014-Apr-18 15:31N 35°26' E 139°45'0 0.0
2014-Apr-18 14:34N 35°26' E 139°45'0 0.0
2014-Apr-18 13:31N 35°26' E 139°45'0 0.0
2014-Apr-18 12:31N 35°26' E 139°45'0 0.0
2014-Apr-18 11:31N 35°26' E 139°45'0 0.1
2014-Apr-18 10:31N 35°26' E 139°45'0 0.1
2014-Apr-18 09:33N 35°26' E 139°45'0 0.0
2014-Apr-18 08:31N 35°26' E 139°45'0 0.0
2014-Apr-18 07:31N 35°26' E 139°45'0 0.0
2014-Apr-18 06:31N 35°26' E 139°45'0 0.0
2014-Apr-18 05:31N 35°26' E 139°45'0 0.0
2014-Apr-18 04:33N 35°26' E 139°45'0 0.1
2014-Apr-18 03:34N 35°26' E 139°45'0 0.0
2014-Apr-18 02:31N 35°26' E 139°45'0 0.0
2014-Apr-18 01:33N 35°26' E 139°45'2 1.7
2014-Apr-18 00:33N 35°25' E 139°46'10 9.5
2014-Apr-17 23:33N 35°15' E 139°47'8 8.4
2014-Apr-17 22:33N 35°07' E 139°45'6 6.0
2014-Apr-17 21:33N 35°02' E 139°43'25 0.8
2014-Apr-16 13:22N 34°44' E 140°03'  
2014-Apr-10 12:33N 32°50' E 132°14'1210.8
2014-Apr-10 11:26N 32°39' E 132°11'6 7.2
2014-Apr-10 10:32N 32°32' E 132°09'23 1.8
2014-Apr-09 21:33N 32°09' E 132°09'  

Dump ship's entire track history

sailing weather and tide predictions

Alpine Light — V7UJ6 — position and weather